This is the latest recevied weather packets stored in our database for station/object KE8RXN. If no packets are shown the sender has not sent any weather packets the latest 10 day(s).
| Time | Temp. | Humidity | Pressure | Rain* | Wind** | Luminosity | Snow |
|---|---|---|---|---|---|---|---|
| 1777407767 | 14.44° C | 67% | 1016.6 hPa | 0 mm | - | 604 W/m² | - |
| 1777407463 | 14.44° C | 66% | 1016.7 hPa | 0 mm | - | 593 W/m² | - |
| 1777407158 | 15° C | 64% | 1016.9 hPa | 0 mm | - | 554 W/m² | - |
| 1777406853 | 14.44° C | 66% | 1016.6 hPa | 0 mm | - | 584 W/m² | - |
| 1777406549 | 14.44° C | 67% | 1016.8 hPa | 0 mm | - | 556 W/m² | - |
| 1777406244 | 14.44° C | 67% | 1016.7 hPa | 0 mm | - | 551 W/m² | - |
| 1777405938 | 13.89° C | 67% | 1016.9 hPa | 0 mm | - | 637 W/m² | - |
| 1777405635 | 13.89° C | 68% | 1016.8 hPa | 0 mm | - | 641 W/m² | - |
| 1777405332 | 15° C | 67% | 1016.6 hPa | 0 mm | - | 623 W/m² | - |
| 1777405027 | 14.44° C | 67% | 1016.8 hPa | 0 mm | - | 655 W/m² | - |
| 1777404723 | 13.89° C | 68% | 1016.7 hPa | 0 mm | - | 702 W/m² | - |
| 1777404418 | 13.89° C | 69% | 1016.6 hPa | 0 mm | - | 642 W/m² | - |
| 1777404115 | 13.33° C | 69% | 1016.4 hPa | 0 mm | - | 772 W/m² | - |
| 1777403811 | 13.33° C | 71% | 1016.3 hPa | 0 mm | - | 203 W/m² | - |
| 1777403510 | 13.33° C | 70% | 1016.6 hPa | 0 mm | - | 511 W/m² | - |
| 1777403205 | 13.33° C | 70% | 1016.5 hPa | 0 mm | - | 320 W/m² | - |
| 1777402901 | 13.33° C | 70% | 1016.4 hPa | 0 mm | - | 190 W/m² | - |
| 1777402596 | 13.89° C | 70% | 1016.2 hPa | 0 mm | - | 598 W/m² | - |
| 1777402294 | 13.89° C | 68% | 1016.3 hPa | 0 mm | - | 779 W/m² | - |
| 1777401988 | 13.33° C | 70% | 1016.2 hPa | 0 mm | - | 634 W/m² | - |
| 1777401687 | 13.33° C | 72% | 1015.8 hPa | 0 mm | - | 771 W/m² | - |
| 1777401385 | 13.33° C | 71% | 1016.1 hPa | 0 mm | - | 630 W/m² | - |
| 1777401080 | 12.78° C | 72% | 1016.1 hPa | 0 mm | - | 792 W/m² | - |
| 1777400776 | 13.89° C | 70% | 1015.8 hPa | 0 mm | - | 249 W/m² | - |
| 1777400473 | 12.78° C | 73% | 1016.1 hPa | 0 mm | - | 590 W/m² | - |
* Rain latest hour (hover to see other rain measurements)
** Current wind speed in m/s (hover to see current wind gust speed)